sensor_id;sensor_type;location;lat;lon;timestamp;pressure;altitude;pressure_sealevel;temperature;humidity
41222;BME280;26952;42.884;23.918;2022-11-15T00:00:26;96516.75;;;6.27;100.00
41222;BME280;26952;42.884;23.918;2022-11-15T00:02:52;96521.75;;;6.30;100.00
41222;BME280;26952;42.884;23.918;2022-11-15T00:05:18;96512.09;;;6.10;100.00
41222;BME280;26952;42.884;23.918;2022-11-15T00:07:43;96519.78;;;6.02;100.00
41222;BME280;26952;42.884;23.918;2022-11-15T00:10:09;96523.88;;;5.95;100.00
41222;BME280;26952;42.884;23.918;2022-11-15T00:12:34;96505.72;;;5.72;100.00
41222;BME280;26952;42.884;23.918;2022-11-15T00:14:59;96519.03;;;5.80;100.00
41222;BME280;26952;42.884;23.918;2022-11-15T00:17:25;96512.47;;;5.74;100.00
41222;BME280;26952;42.884;23.918;2022-11-15T00:19:50;96509.59;;;5.77;100.00
41222;BME280;26952;42.884;23.918;2022-11-15T00:22:16;96514.41;;;5.83;100.00
41222;BME280;26952;42.884;23.918;2022-11-15T00:24:41;96519.41;;;5.86;100.00
41222;BME280;26952;42.884;23.918;2022-11-15T00:27:07;96505.19;;;5.78;100.00
41222;BME280;26952;42.884;23.918;2022-11-15T00:29:33;96508.03;;;5.86;100.00
41222;BME280;26952;42.884;23.918;2022-11-15T00:31:58;96514.34;;;5.94;100.00
41222;BME280;26952;42.884;23.918;2022-11-15T00:34:24;96501.38;;;5.82;100.00
41222;BME280;26952;42.884;23.918;2022-11-15T00:36:49;96508.38;;;5.92;100.00
41222;BME280;26952;42.884;23.918;2022-11-15T00:39:14;96505.41;;;5.86;100.00
41222;BME280;26952;42.884;23.918;2022-11-15T00:41:40;96498.22;;;5.67;100.00
41222;BME280;26952;42.884;23.918;2022-11-15T00:44:05;96505.38;;;5.65;100.00
41222;BME280;26952;42.884;23.918;2022-11-15T00:46:31;96496.91;;;5.61;100.00
41222;BME280;26952;42.884;23.918;2022-11-15T00:48:56;96496.06;;;5.61;100.00
41222;BME280;26952;42.884;23.918;2022-11-15T00:51:21;96487.06;;;5.54;100.00
41222;BME280;26952;42.884;23.918;2022-11-15T00:53:47;96492.56;;;5.51;100.00
41222;BME280;26952;42.884;23.918;2022-11-15T00:56:12;96482.53;;;5.45;100.00
41222;BME280;26952;42.884;23.918;2022-11-15T00:58:38;96493.03;;;5.45;100.00
41222;BME280;26952;42.884;23.918;2022-11-15T01:01:11;96496.50;;;5.45;100.00
41222;BME280;26952;42.884;23.918;2022-11-15T01:03:38;96500.19;;;5.54;100.00
41222;BME280;26952;42.884;23.918;2022-11-15T01:06:04;96497.75;;;5.62;100.00
41222;BME280;26952;42.884;23.918;2022-11-15T01:08:30;96485.69;;;5.59;100.00
41222;BME280;26952;42.884;23.918;2022-11-15T01:11:03;96490.78;;;5.72;100.00
41222;BME280;26952;42.884;23.918;2022-11-15T01:13:31;96482.47;;;5.67;100.00
41222;BME280;26952;42.884;23.918;2022-11-15T01:15:56;96474.59;;;5.67;100.00
41222;BME280;26952;42.884;23.918;2022-11-15T01:18:22;96484.13;;;5.68;100.00
41222;BME280;26952;42.884;23.918;2022-11-15T01:20:47;96479.31;;;5.73;100.00
41222;BME280;26952;42.884;23.918;2022-11-15T01:23:12;96485.56;;;5.61;100.00
41222;BME280;26952;42.884;23.918;2022-11-15T01:25:38;96485.44;;;5.62;100.00
41222;BME280;26952;42.884;23.918;2022-11-15T01:28:03;96485.81;;;5.58;100.00
41222;BME280;26952;42.884;23.918;2022-11-15T01:30:29;96484.47;;;5.43;100.00
41222;BME280;26952;42.884;23.918;2022-11-15T01:32:54;96486.13;;;5.44;100.00
41222;BME280;26952;42.884;23.918;2022-11-15T01:35:20;96494.22;;;5.52;100.00
41222;BME280;26952;42.884;23.918;2022-11-15T01:37:46;96483.38;;;5.45;100.00
41222;BME280;26952;42.884;23.918;2022-11-15T01:40:11;96478.00;;;5.47;100.00
41222;BME280;26952;42.884;23.918;2022-11-15T01:42:37;96487.53;;;5.48;100.00
41222;BME280;26952;42.884;23.918;2022-11-15T01:45:03;96484.31;;;5.55;100.00
41222;BME280;26952;42.884;23.918;2022-11-15T01:47:34;96476.56;;;5.54;100.00
41222;BME280;26952;42.884;23.918;2022-11-15T01:50:05;96472.44;;;5.61;100.00
41222;BME280;26952;42.884;23.918;2022-11-15T01:52:34;96472.22;;;5.64;100.00
41222;BME280;26952;42.884;23.918;2022-11-15T01:55:20;96473.03;;;5.64;100.00
41222;BME280;26952;42.884;23.918;2022-11-15T01:57:49;96468.03;;;5.61;100.00
41222;BME280;26952;42.884;23.918;2022-11-15T02:00:16;96469.69;;;5.62;100.00
41222;BME280;26952;42.884;23.918;2022-11-15T02:02:42;96475.78;;;5.63;100.00
41222;BME280;26952;42.884;23.918;2022-11-15T02:05:08;96455.69;;;5.52;100.00
41222;BME280;26952;42.884;23.918;2022-11-15T02:07:34;96464.56;;;5.61;100.00
41222;BME280;26952;42.884;23.918;2022-11-15T02:10:09;96468.09;;;5.71;100.00
41222;BME280;26952;42.884;23.918;2022-11-15T02:12:35;96462.53;;;5.64;100.00
41222;BME280;26952;42.884;23.918;2022-11-15T02:15:02;96465.78;;;5.57;100.00
41222;BME280;26952;42.884;23.918;2022-11-15T02:17:52;96477.03;;;5.48;100.00
41222;BME280;26952;42.884;23.918;2022-11-15T02:20:46;96466.13;;;5.32;100.00
41222;BME280;26952;42.884;23.918;2022-11-15T02:23:41;96468.75;;;5.32;100.00
41222;BME280;26952;42.884;23.918;2022-11-15T02:28:58;96459.06;;;5.12;100.00
41222;BME280;26952;42.884;23.918;2022-11-15T02:40:12;96458.22;;;5.11;100.00
41222;BME280;26952;42.884;23.918;2022-11-15T02:42:53;96469.13;;;5.27;100.00
41222;BME280;26952;42.884;23.918;2022-11-15T02:45:47;96457.19;;;5.34;100.00
41222;BME280;26952;42.884;23.918;2022-11-15T02:48:15;96454.06;;;5.40;100.00
41222;BME280;26952;42.884;23.918;2022-11-15T02:50:41;96453.88;;;5.53;100.00
41222;BME280;26952;42.884;23.918;2022-11-15T02:53:08;96450.03;;;5.57;100.00
41222;BME280;26952;42.884;23.918;2022-11-15T02:55:38;96447.34;;;5.68;100.00
41222;BME280;26952;42.884;23.918;2022-11-15T03:04:19;96440.06;;;5.72;100.00
41222;BME280;26952;42.884;23.918;2022-11-15T03:07:07;96432.94;;;5.42;100.00
41222;BME280;26952;42.884;23.918;2022-11-15T03:09:42;96438.22;;;5.31;100.00
41222;BME280;26952;42.884;23.918;2022-11-15T03:12:16;96426.81;;;5.21;100.00
41222;BME280;26952;42.884;23.918;2022-11-15T03:14:54;96437.06;;;5.24;100.00
41222;BME280;26952;42.884;23.918;2022-11-15T03:17:41;96440.66;;;5.23;100.00
41222;BME280;26952;42.884;23.918;2022-11-15T03:20:10;96430.66;;;5.17;100.00
41222;BME280;26952;42.884;23.918;2022-11-15T03:22:40;96437.56;;;5.18;100.00
41222;BME280;26952;42.884;23.918;2022-11-15T03:25:10;96438.50;;;5.28;100.00
41222;BME280;26952;42.884;23.918;2022-11-15T03:27:41;96441.56;;;5.33;100.00
41222;BME280;26952;42.884;23.918;2022-11-15T03:30:09;96437.13;;;5.33;100.00
41222;BME280;26952;42.884;23.918;2022-11-15T03:32:40;96442.06;;;5.27;100.00
41222;BME280;26952;42.884;23.918;2022-11-15T03:35:11;96432.28;;;5.29;100.00
41222;BME280;26952;42.884;23.918;2022-11-15T03:40:14;96428.44;;;5.33;100.00
41222;BME280;26952;42.884;23.918;2022-11-15T03:42:57;96404.63;;;5.25;100.00
41222;BME280;26952;42.884;23.918;2022-11-15T03:45:31;96406.88;;;5.29;100.00
41222;BME280;26952;42.884;23.918;2022-11-15T03:48:01;96418.41;;;5.38;100.00
41222;BME280;26952;42.884;23.918;2022-11-15T03:50:28;96399.06;;;5.39;100.00
41222;BME280;26952;42.884;23.918;2022-11-15T03:52:55;96403.13;;;5.43;100.00
41222;BME280;26952;42.884;23.918;2022-11-15T03:55:21;96384.75;;;5.43;100.00
41222;BME280;26952;42.884;23.918;2022-11-15T03:57:52;96401.34;;;5.53;100.00
41222;BME280;26952;42.884;23.918;2022-11-15T04:00:19;96393.34;;;5.54;100.00
41222;BME280;26952;42.884;23.918;2022-11-15T04:02:45;96393.47;;;5.53;100.00
41222;BME280;26952;42.884;23.918;2022-11-15T04:05:10;96388.94;;;5.55;100.00
41222;BME280;26952;42.884;23.918;2022-11-15T04:07:35;96392.28;;;5.57;100.00
41222;BME280;26952;42.884;23.918;2022-11-15T04:10:01;96384.53;;;5.55;100.00
41222;BME280;26952;42.884;23.918;2022-11-15T04:12:33;96385.34;;;5.56;100.00
41222;BME280;26952;42.884;23.918;2022-11-15T04:15:08;96388.69;;;5.58;100.00
41222;BME280;26952;42.884;23.918;2022-11-15T04:20:05;96385.81;;;5.40;100.00
41222;BME280;26952;42.884;23.918;2022-11-15T04:22:52;96389.81;;;5.24;100.00
41222;BME280;26952;42.884;23.918;2022-11-15T04:25:36;96379.34;;;5.24;100.00
41222;BME280;26952;42.884;23.918;2022-11-15T04:28:02;96377.53;;;5.04;100.00
41222;BME280;26952;42.884;23.918;2022-11-15T04:30:27;96378.94;;;5.08;100.00
41222;BME280;26952;42.884;23.918;2022-11-15T04:32:53;96371.25;;;5.16;100.00
41222;BME280;26952;42.884;23.918;2022-11-15T04:35:18;96376.50;;;5.16;100.00
41222;BME280;26952;42.884;23.918;2022-11-15T04:37:43;96378.66;;;5.22;100.00
41222;BME280;26952;42.884;23.918;2022-11-15T04:40:09;96367.81;;;5.15;100.00
41222;BME280;26952;42.884;23.918;2022-11-15T04:42:34;96367.38;;;5.10;100.00
41222;BME280;26952;42.884;23.918;2022-11-15T04:45:00;96372.88;;;5.07;100.00
41222;BME280;26952;42.884;23.918;2022-11-15T04:47:25;96364.47;;;4.93;100.00
41222;BME280;26952;42.884;23.918;2022-11-15T04:49:52;96373.53;;;4.89;100.00
41222;BME280;26952;42.884;23.918;2022-11-15T04:52:18;96365.94;;;4.86;100.00
41222;BME280;26952;42.884;23.918;2022-11-15T04:54:43;96370.91;;;4.89;100.00
41222;BME280;26952;42.884;23.918;2022-11-15T04:57:09;96371.63;;;4.91;100.00
41222;BME280;26952;42.884;23.918;2022-11-15T04:59:35;96374.03;;;4.83;100.00
41222;BME280;26952;42.884;23.918;2022-11-15T05:02:00;96363.91;;;4.78;100.00
41222;BME280;26952;42.884;23.918;2022-11-15T05:04:26;96372.63;;;4.79;100.00
41222;BME280;26952;42.884;23.918;2022-11-15T05:06:51;96364.63;;;4.80;100.00
41222;BME280;26952;42.884;23.918;2022-11-15T05:09:18;96360.94;;;4.83;100.00
41222;BME280;26952;42.884;23.918;2022-11-15T05:11:44;96362.84;;;4.81;100.00
41222;BME280;26952;42.884;23.918;2022-11-15T05:14:09;96349.13;;;4.77;100.00
41222;BME280;26952;42.884;23.918;2022-11-15T05:16:35;96362.28;;;4.98;100.00
41222;BME280;26952;42.884;23.918;2022-11-15T05:19:00;96363.63;;;4.92;100.00
41222;BME280;26952;42.884;23.918;2022-11-15T05:21:26;96367.53;;;4.98;100.00
41222;BME280;26952;42.884;23.918;2022-11-15T05:23:51;96360.28;;;4.90;100.00
41222;BME280;26952;42.884;23.918;2022-11-15T05:26:17;96379.13;;;4.95;100.00
41222;BME280;26952;42.884;23.918;2022-11-15T05:28:43;96368.28;;;4.89;100.00
41222;BME280;26952;42.884;23.918;2022-11-15T05:31:11;96378.28;;;4.95;100.00
41222;BME280;26952;42.884;23.918;2022-11-15T05:33:38;96371.16;;;4.86;100.00
41222;BME280;26952;42.884;23.918;2022-11-15T05:38:32;96357.66;;;4.70;100.00
41222;BME280;26952;42.884;23.918;2022-11-15T05:40:59;96363.22;;;4.76;100.00
41222;BME280;26952;42.884;23.918;2022-11-15T05:43:25;96356.41;;;4.74;100.00
41222;BME280;26952;42.884;23.918;2022-11-15T05:45:51;96358.31;;;4.83;100.00
41222;BME280;26952;42.884;23.918;2022-11-15T05:48:17;96356.69;;;4.91;100.00
41222;BME280;26952;42.884;23.918;2022-11-15T05:50:45;96368.53;;;4.86;100.00
41222;BME280;26952;42.884;23.918;2022-11-15T05:53:14;96368.28;;;4.89;100.00
41222;BME280;26952;42.884;23.918;2022-11-15T05:55:40;96375.94;;;4.81;100.00
41222;BME280;26952;42.884;23.918;2022-11-15T05:58:06;96382.50;;;4.86;100.00
41222;BME280;26952;42.884;23.918;2022-11-15T06:00:32;96379.97;;;4.96;100.00
41222;BME280;26952;42.884;23.918;2022-11-15T06:02:58;96388.97;;;5.03;100.00
41222;BME280;26952;42.884;23.918;2022-11-15T06:05:23;96384.28;;;4.86;100.00
41222;BME280;26952;42.884;23.918;2022-11-15T06:07:49;96378.53;;;4.92;100.00
41222;BME280;26952;42.884;23.918;2022-11-15T06:10:14;96385.47;;;4.93;100.00
41222;BME280;26952;42.884;23.918;2022-11-15T06:12:40;96381.94;;;5.03;100.00
41222;BME280;26952;42.884;23.918;2022-11-15T06:15:06;96382.53;;;5.07;100.00
41222;BME280;26952;42.884;23.918;2022-11-15T06:17:31;96371.72;;;5.00;100.00
41222;BME280;26952;42.884;23.918;2022-11-15T06:19:56;96372.28;;;5.04;100.00
41222;BME280;26952;42.884;23.918;2022-11-15T06:22:22;96376.88;;;4.91;100.00
41222;BME280;26952;42.884;23.918;2022-11-15T06:24:47;96375.03;;;5.02;100.00
41222;BME280;26952;42.884;23.918;2022-11-15T06:27:13;96381.16;;;5.12;100.00
41222;BME280;26952;42.884;23.918;2022-11-15T06:29:39;96384.78;;;5.32;100.00
41222;BME280;26952;42.884;23.918;2022-11-15T06:32:04;96378.78;;;5.41;100.00
41222;BME280;26952;42.884;23.918;2022-11-15T06:34:30;96387.03;;;5.57;100.00
41222;BME280;26952;42.884;23.918;2022-11-15T06:36:55;96383.75;;;5.64;100.00
41222;BME280;26952;42.884;23.918;2022-11-15T06:39:21;96376.00;;;5.63;100.00
41222;BME280;26952;42.884;23.918;2022-11-15T06:41:46;96375.53;;;5.79;100.00
41222;BME280;26952;42.884;23.918;2022-11-15T06:44:12;96373.00;;;5.88;100.00
41222;BME280;26952;42.884;23.918;2022-11-15T06:46:37;96374.25;;;5.94;100.00
41222;BME280;26952;42.884;23.918;2022-11-15T06:49:03;96370.38;;;5.88;100.00
41222;BME280;26952;42.884;23.918;2022-11-15T06:51:28;96358.69;;;5.81;100.00
41222;BME280;26952;42.884;23.918;2022-11-15T06:53:54;96362.53;;;5.77;100.00
41222;BME280;26952;42.884;23.918;2022-11-15T06:56:19;96357.03;;;5.80;100.00
41222;BME280;26952;42.884;23.918;2022-11-15T06:58:44;96374.13;;;5.95;100.00
41222;BME280;26952;42.884;23.918;2022-11-15T07:01:11;96367.41;;;6.12;100.00
41222;BME280;26952;42.884;23.918;2022-11-15T07:03:39;96368.69;;;6.17;100.00
41222;BME280;26952;42.884;23.918;2022-11-15T07:06:05;96371.31;;;6.17;100.00
41222;BME280;26952;42.884;23.918;2022-11-15T07:08:31;96358.28;;;6.06;100.00
41222;BME280;26952;42.884;23.918;2022-11-15T07:11:01;96358.84;;;6.19;100.00
41222;BME280;26952;42.884;23.918;2022-11-15T07:13:28;96360.56;;;6.30;100.00
41222;BME280;26952;42.884;23.918;2022-11-15T07:15:54;96356.97;;;6.40;100.00
41222;BME280;26952;42.884;23.918;2022-11-15T07:18:20;96350.06;;;6.39;100.00
41222;BME280;26952;42.884;23.918;2022-11-15T07:20:45;96347.31;;;6.50;100.00
41222;BME280;26952;42.884;23.918;2022-11-15T07:23:11;96344.84;;;6.58;100.00
41222;BME280;26952;42.884;23.918;2022-11-15T07:25:36;96348.47;;;6.67;100.00
41222;BME280;26952;42.884;23.918;2022-11-15T07:28:02;96342.63;;;6.54;100.00
41222;BME280;26952;42.884;23.918;2022-11-15T07:30:28;96353.72;;;6.57;100.00
41222;BME280;26952;42.884;23.918;2022-11-15T07:32:59;96351.38;;;6.64;100.00
41222;BME280;26952;42.884;23.918;2022-11-15T07:35:26;96341.94;;;6.61;100.00
41222;BME280;26952;42.884;23.918;2022-11-15T07:37:54;96343.06;;;6.59;100.00
41222;BME280;26952;42.884;23.918;2022-11-15T07:40:20;96341.06;;;6.32;100.00
41222;BME280;26952;42.884;23.918;2022-11-15T07:42:45;96341.38;;;5.99;100.00
41222;BME280;26952;42.884;23.918;2022-11-15T07:45:21;96333.72;;;5.87;100.00
41222;BME280;26952;42.884;23.918;2022-11-15T07:47:49;96345.38;;;5.73;100.00
41222;BME280;26952;42.884;23.918;2022-11-15T07:50:16;96344.34;;;5.64;100.00
41222;BME280;26952;42.884;23.918;2022-11-15T07:52:41;96353.09;;;5.44;100.00
41222;BME280;26952;42.884;23.918;2022-11-15T07:55:07;96351.03;;;5.48;100.00
41222;BME280;26952;42.884;23.918;2022-11-15T07:57:33;96350.28;;;5.57;100.00
41222;BME280;26952;42.884;23.918;2022-11-15T07:59:58;96347.13;;;5.63;100.00
41222;BME280;26952;42.884;23.918;2022-11-15T08:02:24;96350.38;;;5.76;100.00
41222;BME280;26952;42.884;23.918;2022-11-15T08:04:49;96343.41;;;5.65;100.00
41222;BME280;26952;42.884;23.918;2022-11-15T08:07:15;96342.03;;;5.71;100.00
41222;BME280;26952;42.884;23.918;2022-11-15T08:09:40;96350.38;;;5.76;100.00
41222;BME280;26952;42.884;23.918;2022-11-15T08:12:06;96331.91;;;5.87;100.00
41222;BME280;26952;42.884;23.918;2022-11-15T08:14:32;96339.19;;;6.04;100.00
41222;BME280;26952;42.884;23.918;2022-11-15T08:16:57;96329.53;;;6.14;100.00
41222;BME280;26952;42.884;23.918;2022-11-15T08:19:23;96339.81;;;6.27;100.00
41222;BME280;26952;42.884;23.918;2022-11-15T08:21:48;96337.44;;;6.24;100.00
41222;BME280;26952;42.884;23.918;2022-11-15T08:24:14;96318.78;;;6.36;100.00
41222;BME280;26952;42.884;23.918;2022-11-15T08:26:39;96320.59;;;6.45;100.00
41222;BME280;26952;42.884;23.918;2022-11-15T08:29:05;96323.78;;;6.49;100.00
41222;BME280;26952;42.884;23.918;2022-11-15T08:31:32;96306.09;;;6.41;100.00
41222;BME280;26952;42.884;23.918;2022-11-15T08:33:58;96316.47;;;6.52;100.00
41222;BME280;26952;42.884;23.918;2022-11-15T08:36:23;96308.56;;;6.33;100.00
41222;BME280;26952;42.884;23.918;2022-11-15T08:38:48;96298.78;;;6.05;100.00
41222;BME280;26952;42.884;23.918;2022-11-15T08:41:23;96288.72;;;6.10;100.00
41222;BME280;26952;42.884;23.918;2022-11-15T08:43:49;96298.53;;;6.08;100.00
41222;BME280;26952;42.884;23.918;2022-11-15T08:46:15;96288.56;;;6.12;100.00
41222;BME280;26952;42.884;23.918;2022-11-15T08:48:40;96295.47;;;6.03;100.00
41222;BME280;26952;42.884;23.918;2022-11-15T08:51:06;96291.34;;;6.10;100.00
41222;BME280;26952;42.884;23.918;2022-11-15T08:53:31;96286.34;;;5.98;100.00
41222;BME280;26952;42.884;23.918;2022-11-15T08:55:57;96286.09;;;6.10;100.00
41222;BME280;26952;42.884;23.918;2022-11-15T08:58:22;96279.75;;;6.22;100.00
41222;BME280;26952;42.884;23.918;2022-11-15T09:00:48;96280.06;;;6.38;100.00
41222;BME280;26952;42.884;23.918;2022-11-15T09:37:37;96216.38;;;6.82;100.00
41222;BME280;26952;42.884;23.918;2022-11-15T09:40:03;96233.25;;;6.89;100.00
41222;BME280;26952;42.884;23.918;2022-11-15T09:43:53;96235.16;;;7.16;100.00
41222;BME280;26952;42.884;23.918;2022-11-15T09:48:39;96234.47;;;7.51;100.00
41222;BME280;26952;42.884;23.918;2022-11-15T09:51:14;96210.13;;;7.49;100.00
41222;BME280;26952;42.884;23.918;2022-11-15T09:54:02;96202.00;;;7.33;100.00
41222;BME280;26952;42.884;23.918;2022-11-15T09:56:34;96203.78;;;7.32;100.00
41222;BME280;26952;42.884;23.918;2022-11-15T10:07:54;96210.50;;;7.81;100.00
41222;BME280;26952;42.884;23.918;2022-11-15T10:10:37;96212.13;;;8.09;100.00
41222;BME280;26952;42.884;23.918;2022-11-15T10:19:20;96178.88;;;7.81;100.00
41222;BME280;26952;42.884;23.918;2022-11-15T10:24:38;96173.91;;;7.78;100.00
41222;BME280;26952;42.884;23.918;2022-11-15T10:27:11;96143.66;;;7.82;100.00
41222;BME280;26952;42.884;23.918;2022-11-15T10:29:42;96142.38;;;7.68;100.00
41222;BME280;26952;42.884;23.918;2022-11-15T10:32:13;96137.19;;;7.49;100.00
41222;BME280;26952;42.884;23.918;2022-11-15T10:34:38;96177.91;;;7.55;100.00
41222;BME280;26952;42.884;23.918;2022-11-15T10:37:04;96151.81;;;7.61;100.00
41222;BME280;26952;42.884;23.918;2022-11-15T10:39:29;96144.94;;;7.78;100.00
41222;BME280;26952;42.884;23.918;2022-11-15T10:41:55;96139.44;;;7.89;100.00
41222;BME280;26952;42.884;23.918;2022-11-15T10:44:28;96156.75;;;8.09;100.00
41222;BME280;26952;42.884;23.918;2022-11-15T10:49:22;96144.28;;;8.11;100.00
41222;BME280;26952;42.884;23.918;2022-11-15T10:51:54;96131.16;;;8.19;100.00
41222;BME280;26952;42.884;23.918;2022-11-15T10:54:47;96139.41;;;8.33;100.00
41222;BME280;26952;42.884;23.918;2022-11-15T10:59:49;96134.19;;;9.10;100.00
41222;BME280;26952;42.884;23.918;2022-11-15T11:04:56;96114.03;;;9.01;100.00
41222;BME280;26952;42.884;23.918;2022-11-15T11:07:26;96105.38;;;8.91;100.00
41222;BME280;26952;42.884;23.918;2022-11-15T11:10:19;96128.59;;;8.62;100.00
41222;BME280;26952;42.884;23.918;2022-11-15T11:12:45;96106.13;;;8.58;100.00
41222;BME280;26952;42.884;23.918;2022-11-15T11:15:15;96099.44;;;8.64;100.00
41222;BME280;26952;42.884;23.918;2022-11-15T11:18:01;96078.25;;;8.81;100.00
41222;BME280;26952;42.884;23.918;2022-11-15T11:20:38;96089.16;;;9.12;100.00
41222;BME280;26952;42.884;23.918;2022-11-15T11:37:35;96065.50;;;9.02;100.00
41222;BME280;26952;42.884;23.918;2022-11-15T11:48:46;96065.34;;;9.45;100.00
41222;BME280;26952;42.884;23.918;2022-11-15T11:51:18;96012.47;;;8.88;100.00
41222;BME280;26952;42.884;23.918;2022-11-15T11:54:00;96040.53;;;9.30;100.00
41222;BME280;26952;42.884;23.918;2022-11-15T11:56:32;96054.03;;;9.27;100.00
41222;BME280;26952;42.884;23.918;2022-11-15T12:01:41;96048.50;;;9.38;100.00
41222;BME280;26952;42.884;23.918;2022-11-15T12:04:30;96057.75;;;9.42;100.00
41222;BME280;26952;42.884;23.918;2022-11-15T12:07:13;96031.09;;;8.86;100.00
41222;BME280;26952;42.884;23.918;2022-11-15T12:12:36;96027.91;;;9.08;100.00
41222;BME280;26952;42.884;23.918;2022-11-15T12:15:14;96026.56;;;9.04;100.00
41222;BME280;26952;42.884;23.918;2022-11-15T12:17:41;96030.94;;;8.54;100.00
41222;BME280;26952;42.884;23.918;2022-11-15T12:28:27;96040.72;;;8.95;100.00
41222;BME280;26952;42.884;23.918;2022-11-15T12:30:56;96010.81;;;9.28;100.00
41222;BME280;26952;42.884;23.918;2022-11-15T12:36:12;96008.84;;;9.30;100.00
41222;BME280;26952;42.884;23.918;2022-11-15T12:41:18;96024.81;;;10.03;100.00
41222;BME280;26952;42.884;23.918;2022-11-15T12:43:45;96016.25;;;10.09;100.00
41222;BME280;26952;42.884;23.918;2022-11-15T12:51:04;96013.44;;;10.10;100.00
41222;BME280;26952;42.884;23.918;2022-11-15T12:53:31;96016.25;;;10.09;100.00
41222;BME280;26952;42.884;23.918;2022-11-15T12:58:41;96020.19;;;9.23;100.00
41222;BME280;26952;42.884;23.918;2022-11-15T13:01:08;95993.31;;;8.86;100.00
41222;BME280;26952;42.884;23.918;2022-11-15T13:03:34;95996.25;;;9.16;100.00
41222;BME280;26952;42.884;23.918;2022-11-15T13:06:03;95986.38;;;9.26;100.00
41222;BME280;26952;42.884;23.918;2022-11-15T13:08:55;96007.63;;;9.17;100.00
41222;BME280;26952;42.884;23.918;2022-11-15T13:11:46;96014.13;;;8.55;100.00
41222;BME280;26952;42.884;23.918;2022-11-15T13:17:10;96007.00;;;8.30;100.00
41222;BME280;26952;42.884;23.918;2022-11-15T13:19:40;95983.16;;;8.14;100.00
41222;BME280;26952;42.884;23.918;2022-11-15T13:22:09;96007.53;;;8.33;100.00
41222;BME280;26952;42.884;23.918;2022-11-15T13:24:54;96009.00;;;8.28;100.00
41222;BME280;26952;42.884;23.918;2022-11-15T13:27:20;95991.63;;;8.00;100.00
41222;BME280;26952;42.884;23.918;2022-11-15T13:29:45;96005.28;;;8.21;100.00
41222;BME280;26952;42.884;23.918;2022-11-15T13:32:13;96006.00;;;8.23;100.00
41222;BME280;26952;42.884;23.918;2022-11-15T13:34:43;95995.13;;;8.26;100.00
41222;BME280;26952;42.884;23.918;2022-11-15T13:37:31;96006.56;;;8.34;100.00
41222;BME280;26952;42.884;23.918;2022-11-15T13:42:47;96007.09;;;8.20;100.00
41222;BME280;26952;42.884;23.918;2022-11-15T13:45:17;95997.69;;;8.18;100.00
41222;BME280;26952;42.884;23.918;2022-11-15T13:47:43;95980.31;;;8.25;100.00
41222;BME280;26952;42.884;23.918;2022-11-15T13:50:12;95998.34;;;8.37;100.00
41222;BME280;26952;42.884;23.918;2022-11-15T13:52:39;96009.09;;;8.44;100.00
41222;BME280;26952;42.884;23.918;2022-11-15T13:55:17;95989.41;;;8.30;100.00
41222;BME280;26952;42.884;23.918;2022-11-15T14:00:39;95990.66;;;8.44;100.00
41222;BME280;26952;42.884;23.918;2022-11-15T14:05:41;95987.69;;;8.47;100.00
41222;BME280;26952;42.884;23.918;2022-11-15T14:08:23;95981.69;;;8.37;100.00
41222;BME280;26952;42.884;23.918;2022-11-15T14:11:06;95962.00;;;8.06;100.00
41222;BME280;26952;42.884;23.918;2022-11-15T14:13:31;95988.78;;;8.19;100.00
41222;BME280;26952;42.884;23.918;2022-11-15T14:16:18;95991.44;;;8.19;100.00
41222;BME280;26952;42.884;23.918;2022-11-15T14:18:52;95982.13;;;8.24;100.00
41222;BME280;26952;42.884;23.918;2022-11-15T14:21:19;95975.69;;;8.27;100.00
41222;BME280;26952;42.884;23.918;2022-11-15T14:23:45;95979.22;;;8.35;100.00
41222;BME280;26952;42.884;23.918;2022-11-15T14:26:27;95979.69;;;8.31;100.00
41222;BME280;26952;42.884;23.918;2022-11-15T14:28:53;95955.09;;;8.05;100.00
41222;BME280;26952;42.884;23.918;2022-11-15T14:31:19;95979.91;;;8.20;100.00
41222;BME280;26952;42.884;23.918;2022-11-15T14:33:46;95984.03;;;8.22;100.00
41222;BME280;26952;42.884;23.918;2022-11-15T14:36:14;95969.25;;;8.04;100.00
41222;BME280;26952;42.884;23.918;2022-11-15T14:38:40;95965.94;;;8.02;100.00
41222;BME280;26952;42.884;23.918;2022-11-15T14:41:28;95973.44;;;8.14;100.00
41222;BME280;26952;42.884;23.918;2022-11-15T14:43:57;95962.63;;;8.00;100.00
41222;BME280;26952;42.884;23.918;2022-11-15T14:46:23;95983.31;;;8.12;100.00
41222;BME280;26952;42.884;23.918;2022-11-15T14:48:48;95978.66;;;8.06;100.00
41222;BME280;26952;42.884;23.918;2022-11-15T14:51:16;95968.28;;;8.05;100.00
41222;BME280;26952;42.884;23.918;2022-11-15T14:53:42;95956.72;;;8.06;100.00
41222;BME280;26952;42.884;23.918;2022-11-15T14:56:08;95964.69;;;8.14;100.00
41222;BME280;26952;42.884;23.918;2022-11-15T14:58:34;95933.47;;;8.01;100.00
41222;BME280;26952;42.884;23.918;2022-11-15T15:01:02;95960.47;;;8.21;100.00
41222;BME280;26952;42.884;23.918;2022-11-15T15:03:27;95963.81;;;8.23;100.00
41222;BME280;26952;42.884;23.918;2022-11-15T15:05:53;95942.94;;;8.12;100.00
41222;BME280;26952;42.884;23.918;2022-11-15T15:08:19;95946.41;;;8.12;100.00
41222;BME280;26952;42.884;23.918;2022-11-15T15:10:45;95960.09;;;8.16;100.00
41222;BME280;26952;42.884;23.918;2022-11-15T15:13:21;95964.78;;;8.04;100.00
41222;BME280;26952;42.884;23.918;2022-11-15T15:15:48;95967.91;;;8.00;100.00
41222;BME280;26952;42.884;23.918;2022-11-15T15:18:14;95970.47;;;7.92;100.00
41222;BME280;26952;42.884;23.918;2022-11-15T15:20:41;95956.94;;;7.87;100.00
41222;BME280;26952;42.884;23.918;2022-11-15T15:23:19;95956.31;;;7.93;100.00
41222;BME280;26952;42.884;23.918;2022-11-15T15:25:46;95926.91;;;7.80;100.00
41222;BME280;26952;42.884;23.918;2022-11-15T15:28:13;95912.91;;;7.79;100.00